sensor_id;sensor_type;location;lat;lon;timestamp;temperature;humidity
54680;DHT22;40578;53.178;5.846;2023-05-15T00:00:39;10.40;99.90
54680;DHT22;40578;53.178;5.846;2023-05-15T00:03:05;10.40;99.90
54680;DHT22;40578;53.178;5.846;2023-05-15T00:05:32;10.90;99.90
54680;DHT22;40578;53.178;5.846;2023-05-15T00:07:57;10.40;99.90
54680;DHT22;40578;53.178;5.846;2023-05-15T00:10:23;10.40;99.90
54680;DHT22;40578;53.178;5.846;2023-05-15T00:12:48;10.50;99.90
54680;DHT22;40578;53.178;5.846;2023-05-15T00:15:14;10.40;99.90
54680;DHT22;40578;53.178;5.846;2023-05-15T00:17:40;10.40;99.90
54680;DHT22;40578;53.178;5.846;2023-05-15T00:20:06;10.40;99.90
54680;DHT22;40578;53.178;5.846;2023-05-15T00:22:34;10.30;99.90
54680;DHT22;40578;53.178;5.846;2023-05-15T00:24:59;10.60;99.90
54680;DHT22;40578;53.178;5.846;2023-05-15T00:27:25;10.20;99.90
54680;DHT22;40578;53.178;5.846;2023-05-15T00:29:51;10.30;99.90
54680;DHT22;40578;53.178;5.846;2023-05-15T00:32:16;10.20;99.90
54680;DHT22;40578;53.178;5.846;2023-05-15T00:34:42;10.20;99.90
54680;DHT22;40578;53.178;5.846;2023-05-15T00:37:07;10.20;99.90
54680;DHT22;40578;53.178;5.846;2023-05-15T00:39:33;10.20;99.90
54680;DHT22;40578;53.178;5.846;2023-05-15T00:41:59;10.10;99.90
54680;DHT22;40578;53.178;5.846;2023-05-15T00:44:25;10.20;99.90
54680;DHT22;40578;53.178;5.846;2023-05-15T00:46:52;10.20;99.90
54680;DHT22;40578;53.178;5.846;2023-05-15T00:49:18;10.60;99.90
54680;DHT22;40578;53.178;5.846;2023-05-15T00:51:46;10.20;99.90
54680;DHT22;40578;53.178;5.846;2023-05-15T00:54:11;10.10;99.90
54680;DHT22;40578;53.178;5.846;2023-05-15T00:56:37;10.20;99.90
54680;DHT22;40578;53.178;5.846;2023-05-15T00:59:04;10.10;99.90
54680;DHT22;40578;53.178;5.846;2023-05-15T01:01:29;10.10;99.90
54680;DHT22;40578;53.178;5.846;2023-05-15T01:03:59;10.00;99.90
54680;DHT22;40578;53.178;5.846;2023-05-15T01:06:26;11.10;99.90
54680;DHT22;40578;53.178;5.846;2023-05-15T01:08:53;9.90;99.90
54680;DHT22;40578;53.178;5.846;2023-05-15T01:11:21;10.00;99.90
54680;DHT22;40578;53.178;5.846;2023-05-15T01:13:48;9.90;99.90
54680;DHT22;40578;53.178;5.846;2023-05-15T01:16:14;9.80;99.90
54680;DHT22;40578;53.178;5.846;2023-05-15T01:18:40;9.80;99.90
54680;DHT22;40578;53.178;5.846;2023-05-15T01:29:36;9.70;99.90
54680;DHT22;40578;53.178;5.846;2023-05-15T01:32:07;9.70;99.90
54680;DHT22;40578;53.178;5.846;2023-05-15T01:35:00;9.70;99.90
54680;DHT22;40578;53.178;5.846;2023-05-15T01:37:31;9.70;99.90
54680;DHT22;40578;53.178;5.846;2023-05-15T01:40:02;9.70;99.90
54680;DHT22;40578;53.178;5.846;2023-05-15T01:42:33;9.70;99.90
54680;DHT22;40578;53.178;5.846;2023-05-15T01:45:02;9.90;99.90
54680;DHT22;40578;53.178;5.846;2023-05-15T01:47:43;9.70;99.90
54680;DHT22;40578;53.178;5.846;2023-05-15T01:50:11;9.70;99.90
54680;DHT22;40578;53.178;5.846;2023-05-15T01:52:40;9.60;99.90
54680;DHT22;40578;53.178;5.846;2023-05-15T01:55:07;9.70;99.90
54680;DHT22;40578;53.178;5.846;2023-05-15T01:57:34;9.80;99.90
54680;DHT22;40578;53.178;5.846;2023-05-15T02:00:00;9.90;99.90
54680;DHT22;40578;53.178;5.846;2023-05-15T02:02:28;10.00;99.90
54680;DHT22;40578;53.178;5.846;2023-05-15T02:04:55;9.90;99.90
54680;DHT22;40578;53.178;5.846;2023-05-15T02:07:21;9.90;99.90
54680;DHT22;40578;53.178;5.846;2023-05-15T02:09:49;10.00;99.90
54680;DHT22;40578;53.178;5.846;2023-05-15T02:12:15;10.00;99.90
54680;DHT22;40578;53.178;5.846;2023-05-15T02:14:42;9.90;99.90
54680;DHT22;40578;53.178;5.846;2023-05-15T02:17:08;10.00;99.90
54680;DHT22;40578;53.178;5.846;2023-05-15T02:19:33;10.00;99.90
54680;DHT22;40578;53.178;5.846;2023-05-15T02:21:59;9.90;99.90
54680;DHT22;40578;53.178;5.846;2023-05-15T02:24:25;10.60;99.90
54680;DHT22;40578;53.178;5.846;2023-05-15T02:35:36;10.00;99.90
54680;DHT22;40578;53.178;5.846;2023-05-15T02:38:10;10.00;99.90
54680;DHT22;40578;53.178;5.846;2023-05-15T02:40:37;10.00;99.90
54680;DHT22;40578;53.178;5.846;2023-05-15T02:43:04;10.00;99.90
54680;DHT22;40578;53.178;5.846;2023-05-15T02:45:30;9.90;99.90
54680;DHT22;40578;53.178;5.846;2023-05-15T02:47:56;9.80;99.90
54680;DHT22;40578;53.178;5.846;2023-05-15T02:50:23;9.70;99.90
54680;DHT22;40578;53.178;5.846;2023-05-15T02:52:49;11.20;99.90
54680;DHT22;40578;53.178;5.846;2023-05-15T02:55:14;9.70;99.90
54680;DHT22;40578;53.178;5.846;2023-05-15T02:57:40;9.70;99.90
54680;DHT22;40578;53.178;5.846;2023-05-15T03:00:06;9.60;99.90
54680;DHT22;40578;53.178;5.846;2023-05-15T03:02:34;9.60;99.90
54680;DHT22;40578;53.178;5.846;2023-05-15T03:05:00;9.70;99.90
54680;DHT22;40578;53.178;5.846;2023-05-15T03:07:26;9.50;99.90
54680;DHT22;40578;53.178;5.846;2023-05-15T03:09:51;9.40;99.90
54680;DHT22;40578;53.178;5.846;2023-05-15T03:12:17;9.40;99.90
54680;DHT22;40578;53.178;5.846;2023-05-15T03:14:43;9.30;99.90
54680;DHT22;40578;53.178;5.846;2023-05-15T03:17:08;9.30;99.90
54680;DHT22;40578;53.178;5.846;2023-05-15T03:19:34;9.30;99.90
54680;DHT22;40578;53.178;5.846;2023-05-15T03:21:59;9.20;99.90
54680;DHT22;40578;53.178;5.846;2023-05-15T03:24:25;9.20;99.90
54680;DHT22;40578;53.178;5.846;2023-05-15T03:26:50;9.30;99.90
54680;DHT22;40578;53.178;5.846;2023-05-15T03:29:16;9.30;99.90
54680;DHT22;40578;53.178;5.846;2023-05-15T03:31:42;9.20;99.90
54680;DHT22;40578;53.178;5.846;2023-05-15T03:34:07;9.20;99.90
54680;DHT22;40578;53.178;5.846;2023-05-15T03:36:33;9.20;99.90
54680;DHT22;40578;53.178;5.846;2023-05-15T03:38:58;9.30;99.90
54680;DHT22;40578;53.178;5.846;2023-05-15T03:41:24;9.60;99.90
54680;DHT22;40578;53.178;5.846;2023-05-15T03:43:52;9.30;99.90
54680;DHT22;40578;53.178;5.846;2023-05-15T03:46:17;9.30;99.90
54680;DHT22;40578;53.178;5.846;2023-05-15T03:48:43;9.30;99.90
54680;DHT22;40578;53.178;5.846;2023-05-15T03:51:08;9.30;99.90
54680;DHT22;40578;53.178;5.846;2023-05-15T03:53:34;9.40;99.90
54680;DHT22;40578;53.178;5.846;2023-05-15T03:56:00;9.30;99.90
54680;DHT22;40578;53.178;5.846;2023-05-15T03:58:26;9.30;99.90
54680;DHT22;40578;53.178;5.846;2023-05-15T04:00:51;9.30;99.90
54680;DHT22;40578;53.178;5.846;2023-05-15T04:03:17;9.30;99.90
54680;DHT22;40578;53.178;5.846;2023-05-15T04:05:44;9.30;99.90
54680;DHT22;40578;53.178;5.846;2023-05-15T04:08:14;9.20;99.90
54680;DHT22;40578;53.178;5.846;2023-05-15T04:10:40;9.30;99.90
54680;DHT22;40578;53.178;5.846;2023-05-15T04:13:05;9.20;99.90
54680;DHT22;40578;53.178;5.846;2023-05-15T04:15:31;9.20;99.90
54680;DHT22;40578;53.178;5.846;2023-05-15T04:17:57;9.20;99.90
54680;DHT22;40578;53.178;5.846;2023-05-15T04:20:24;9.20;99.90
54680;DHT22;40578;53.178;5.846;2023-05-15T04:22:50;9.30;99.90
54680;DHT22;40578;53.178;5.846;2023-05-15T04:25:16;9.30;99.90
54680;DHT22;40578;53.178;5.846;2023-05-15T04:27:43;9.30;99.90
54680;DHT22;40578;53.178;5.846;2023-05-15T04:30:09;9.30;99.90
54680;DHT22;40578;53.178;5.846;2023-05-15T04:32:37;9.30;99.90
54680;DHT22;40578;53.178;5.846;2023-05-15T04:35:05;9.30;99.90
54680;DHT22;40578;53.178;5.846;2023-05-15T04:37:33;9.30;99.90
54680;DHT22;40578;53.178;5.846;2023-05-15T04:39:59;9.30;99.90
54680;DHT22;40578;53.178;5.846;2023-05-15T04:42:24;9.30;99.90
54680;DHT22;40578;53.178;5.846;2023-05-15T04:44:51;9.50;99.90
54680;DHT22;40578;53.178;5.846;2023-05-15T04:47:16;9.60;99.90
54680;DHT22;40578;53.178;5.846;2023-05-15T04:49:42;9.70;99.90
54680;DHT22;40578;53.178;5.846;2023-05-15T04:52:08;9.90;99.90
54680;DHT22;40578;53.178;5.846;2023-05-15T04:54:33;10.20;99.90
54680;DHT22;40578;53.178;5.846;2023-05-15T04:56:59;10.40;99.90
54680;DHT22;40578;53.178;5.846;2023-05-15T04:59:24;10.80;99.90
54680;DHT22;40578;53.178;5.846;2023-05-15T05:01:53;10.90;99.90
54680;DHT22;40578;53.178;5.846;2023-05-15T05:04:18;10.90;99.90
54680;DHT22;40578;53.178;5.846;2023-05-15T05:06:45;10.80;99.90
54680;DHT22;40578;53.178;5.846;2023-05-15T05:09:10;10.70;99.90
54680;DHT22;40578;53.178;5.846;2023-05-15T05:11:38;10.60;99.90
54680;DHT22;40578;53.178;5.846;2023-05-15T05:14:03;10.60;99.90
54680;DHT22;40578;53.178;5.846;2023-05-15T05:16:29;10.70;99.90
54680;DHT22;40578;53.178;5.846;2023-05-15T05:18:55;10.60;99.90
54680;DHT22;40578;53.178;5.846;2023-05-15T05:21:20;10.70;99.90
54680;DHT22;40578;53.178;5.846;2023-05-15T05:23:46;10.70;99.90
54680;DHT22;40578;53.178;5.846;2023-05-15T05:26:11;10.70;99.90
54680;DHT22;40578;53.178;5.846;2023-05-15T05:28:37;10.70;99.90
54680;DHT22;40578;53.178;5.846;2023-05-15T05:31:03;10.80;99.90
54680;DHT22;40578;53.178;5.846;2023-05-15T05:33:29;10.70;99.90
54680;DHT22;40578;53.178;5.846;2023-05-15T05:35:54;11.70;99.90
54680;DHT22;40578;53.178;5.846;2023-05-15T05:38:20;10.80;99.90
54680;DHT22;40578;53.178;5.846;2023-05-15T05:40:45;10.90;99.90
54680;DHT22;40578;53.178;5.846;2023-05-15T05:43:11;10.90;99.90
54680;DHT22;40578;53.178;5.846;2023-05-15T05:45:37;11.00;99.90
54680;DHT22;40578;53.178;5.846;2023-05-15T05:48:03;11.00;99.90
54680;DHT22;40578;53.178;5.846;2023-05-15T05:50:28;11.00;99.90
54680;DHT22;40578;53.178;5.846;2023-05-15T05:52:54;11.00;99.90
54680;DHT22;40578;53.178;5.846;2023-05-15T05:55:19;10.90;99.90
54680;DHT22;40578;53.178;5.846;2023-05-15T05:57:45;11.00;99.90
54680;DHT22;40578;53.178;5.846;2023-05-15T06:00:11;11.00;99.90
54680;DHT22;40578;53.178;5.846;2023-05-15T06:02:37;11.00;99.90
54680;DHT22;40578;53.178;5.846;2023-05-15T06:05:03;11.00;99.90
54680;DHT22;40578;53.178;5.846;2023-05-15T06:07:30;11.00;99.90
54680;DHT22;40578;53.178;5.846;2023-05-15T06:09:56;11.00;99.90
54680;DHT22;40578;53.178;5.846;2023-05-15T06:12:21;11.00;99.90
54680;DHT22;40578;53.178;5.846;2023-05-15T06:14:47;12.40;99.90
54680;DHT22;40578;53.178;5.846;2023-05-15T06:17:12;11.10;99.90
54680;DHT22;40578;53.178;5.846;2023-05-15T06:19:38;11.10;99.90
54680;DHT22;40578;53.178;5.846;2023-05-15T06:22:04;11.20;99.90
54680;DHT22;40578;53.178;5.846;2023-05-15T06:24:30;11.20;99.90
54680;DHT22;40578;53.178;5.846;2023-05-15T06:26:55;11.20;99.90
54680;DHT22;40578;53.178;5.846;2023-05-15T06:29:21;11.10;99.90
54680;DHT22;40578;53.178;5.846;2023-05-15T06:31:47;11.10;99.90
54680;DHT22;40578;53.178;5.846;2023-05-15T06:34:12;11.10;99.90
54680;DHT22;40578;53.178;5.846;2023-05-15T06:36:38;11.20;99.90
54680;DHT22;40578;53.178;5.846;2023-05-15T06:39:03;11.30;99.90
54680;DHT22;40578;53.178;5.846;2023-05-15T06:41:30;11.50;99.90
54680;DHT22;40578;53.178;5.846;2023-05-15T06:43:56;11.50;99.90
54680;DHT22;40578;53.178;5.846;2023-05-15T06:46:22;11.50;99.90
54680;DHT22;40578;53.178;5.846;2023-05-15T06:48:47;11.40;99.90
54680;DHT22;40578;53.178;5.846;2023-05-15T06:51:13;11.40;99.90
54680;DHT22;40578;53.178;5.846;2023-05-15T06:53:40;11.40;99.90
54680;DHT22;40578;53.178;5.846;2023-05-15T06:56:06;11.30;99.90
54680;DHT22;40578;53.178;5.846;2023-05-15T06:58:32;11.30;99.90
54680;DHT22;40578;53.178;5.846;2023-05-15T07:00:57;11.30;99.90
54680;DHT22;40578;53.178;5.846;2023-05-15T07:03:23;11.30;99.90
54680;DHT22;40578;53.178;5.846;2023-05-15T07:05:48;11.30;99.90
54680;DHT22;40578;53.178;5.846;2023-05-15T07:08:15;11.30;99.90
54680;DHT22;40578;53.178;5.846;2023-05-15T07:10:40;11.60;99.90
54680;DHT22;40578;53.178;5.846;2023-05-15T07:13:06;11.40;99.90
54680;DHT22;40578;53.178;5.846;2023-05-15T07:15:32;11.50;99.90
54680;DHT22;40578;53.178;5.846;2023-05-15T07:17:57;11.50;99.90
54680;DHT22;40578;53.178;5.846;2023-05-15T07:20:23;11.60;99.90
54680;DHT22;40578;53.178;5.846;2023-05-15T07:22:48;11.90;99.90
54680;DHT22;40578;53.178;5.846;2023-05-15T07:25:14;11.80;99.90
54680;DHT22;40578;53.178;5.846;2023-05-15T07:27:40;11.80;99.90
54680;DHT22;40578;53.178;5.846;2023-05-15T07:30:06;11.80;99.90
54680;DHT22;40578;53.178;5.846;2023-05-15T07:32:32;11.90;99.90
54680;DHT22;40578;53.178;5.846;2023-05-15T07:34:58;12.00;99.90
54680;DHT22;40578;53.178;5.846;2023-05-15T07:37:24;11.90;99.90
54680;DHT22;40578;53.178;5.846;2023-05-15T07:39:50;12.00;99.90
54680;DHT22;40578;53.178;5.846;2023-05-15T07:42:16;12.10;99.90
54680;DHT22;40578;53.178;5.846;2023-05-15T07:44:41;12.30;99.90
54680;DHT22;40578;53.178;5.846;2023-05-15T07:47:07;12.50;99.90
54680;DHT22;40578;53.178;5.846;2023-05-15T07:49:33;12.50;99.90
54680;DHT22;40578;53.178;5.846;2023-05-15T07:51:59;12.40;99.90
54680;DHT22;40578;53.178;5.846;2023-05-15T07:54:25;12.60;99.90
54680;DHT22;40578;53.178;5.846;2023-05-15T07:56:51;12.60;99.90
54680;DHT22;40578;53.178;5.846;2023-05-15T07:59:17;12.70;99.90
54680;DHT22;40578;53.178;5.846;2023-05-15T08:01:42;12.80;99.90
54680;DHT22;40578;53.178;5.846;2023-05-15T08:04:08;13.00;99.90
54680;DHT22;40578;53.178;5.846;2023-05-15T08:06:34;13.20;99.90
54680;DHT22;40578;53.178;5.846;2023-05-15T08:09:02;13.30;99.90
54680;DHT22;40578;53.178;5.846;2023-05-15T08:11:28;13.40;99.90
54680;DHT22;40578;53.178;5.846;2023-05-15T08:13:54;13.40;99.90
54680;DHT22;40578;53.178;5.846;2023-05-15T08:16:20;13.30;99.90
54680;DHT22;40578;53.178;5.846;2023-05-15T08:18:45;13.50;99.90
54680;DHT22;40578;53.178;5.846;2023-05-15T08:21:11;13.40;99.90
54680;DHT22;40578;53.178;5.846;2023-05-15T08:23:37;13.60;99.90
54680;DHT22;40578;53.178;5.846;2023-05-15T08:26:02;13.60;99.90
54680;DHT22;40578;53.178;5.846;2023-05-15T08:28:28;13.70;99.90
54680;DHT22;40578;53.178;5.846;2023-05-15T08:30:53;13.80;99.90
54680;DHT22;40578;53.178;5.846;2023-05-15T08:33:19;14.00;99.90
54680;DHT22;40578;53.178;5.846;2023-05-15T08:35:45;13.80;99.90
54680;DHT22;40578;53.178;5.846;2023-05-15T08:38:11;14.00;99.90
54680;DHT22;40578;53.178;5.846;2023-05-15T08:40:36;14.10;99.90
54680;DHT22;40578;53.178;5.846;2023-05-15T08:43:05;14.10;99.90
54680;DHT22;40578;53.178;5.846;2023-05-15T08:45:32;14.00;99.90
54680;DHT22;40578;53.178;5.846;2023-05-15T08:47:58;14.00;99.90
54680;DHT22;40578;53.178;5.846;2023-05-15T08:50:25;14.10;99.90
54680;DHT22;40578;53.178;5.846;2023-05-15T08:52:51;14.20;99.90
54680;DHT22;40578;53.178;5.846;2023-05-15T08:55:17;14.20;99.90
54680;DHT22;40578;53.178;5.846;2023-05-15T08:57:43;14.20;99.90
54680;DHT22;40578;53.178;5.846;2023-05-15T09:00:10;14.20;99.90
54680;DHT22;40578;53.178;5.846;2023-05-15T09:02:40;14.30;99.90
54680;DHT22;40578;53.178;5.846;2023-05-15T09:05:06;14.20;99.90
54680;DHT22;40578;53.178;5.846;2023-05-15T09:07:32;14.20;99.90
54680;DHT22;40578;53.178;5.846;2023-05-15T09:10:00;14.30;99.90
54680;DHT22;40578;53.178;5.846;2023-05-15T09:12:26;14.30;99.90
54680;DHT22;40578;53.178;5.846;2023-05-15T09:15:17;14.30;99.90
54680;DHT22;40578;53.178;5.846;2023-05-15T09:17:44;14.30;99.90
54680;DHT22;40578;53.178;5.846;2023-05-15T09:20:24;14.20;99.90
54680;DHT22;40578;53.178;5.846;2023-05-15T09:22:51;14.30;99.90
54680;DHT22;40578;53.178;5.846;2023-05-15T09:25:31;14.30;99.90
54680;DHT22;40578;53.178;5.846;2023-05-15T09:27:59;14.20;99.90
54680;DHT22;40578;53.178;5.846;2023-05-15T09:30:26;14.20;99.90
54680;DHT22;40578;53.178;5.846;2023-05-15T09:32:52;14.30;99.90
54680;DHT22;40578;53.178;5.846;2023-05-15T09:35:38;14.40;99.90
54680;DHT22;40578;53.178;5.846;2023-05-15T09:38:08;14.40;99.90
54680;DHT22;40578;53.178;5.846;2023-05-15T09:40:34;14.50;99.90
54680;DHT22;40578;53.178;5.846;2023-05-15T09:43:00;14.30;99.90
54680;DHT22;40578;53.178;5.846;2023-05-15T09:45:26;14.50;99.90
54680;DHT22;40578;53.178;5.846;2023-05-15T09:48:03;14.60;99.90
54680;DHT22;40578;53.178;5.846;2023-05-15T09:50:39;14.70;99.90
54680;DHT22;40578;53.178;5.846;2023-05-15T09:53:05;14.80;99.90
54680;DHT22;40578;53.178;5.846;2023-05-15T09:55:35;14.60;99.90
54680;DHT22;40578;53.178;5.846;2023-05-15T10:00:35;14.60;99.90
54680;DHT22;40578;53.178;5.846;2023-05-15T10:03:04;14.40;99.90
54680;DHT22;40578;53.178;5.846;2023-05-15T10:05:31;14.50;99.90
54680;DHT22;40578;53.178;5.846;2023-05-15T10:07:57;14.50;99.90
54680;DHT22;40578;53.178;5.846;2023-05-15T10:10:24;14.40;99.90
54680;DHT22;40578;53.178;5.846;2023-05-15T10:12:50;14.50;99.90
54680;DHT22;40578;53.178;5.846;2023-05-15T10:15:20;14.50;99.90
54680;DHT22;40578;53.178;5.846;2023-05-15T10:17:47;14.60;99.90
54680;DHT22;40578;53.178;5.846;2023-05-15T10:20:15;14.30;99.90
54680;DHT22;40578;53.178;5.846;2023-05-15T10:22:45;14.60;99.90
54680;DHT22;40578;53.178;5.846;2023-05-15T10:25:34;14.80;99.90
54680;DHT22;40578;53.178;5.846;2023-05-15T10:28:02;14.70;99.90
54680;DHT22;40578;53.178;5.846;2023-05-15T10:30:30;14.90;99.90
54680;DHT22;40578;53.178;5.846;2023-05-15T10:32:56;14.80;99.90
54680;DHT22;40578;53.178;5.846;2023-05-15T10:35:23;15.00;99.90
54680;DHT22;40578;53.178;5.846;2023-05-15T10:37:50;15.40;99.90
54680;DHT22;40578;53.178;5.846;2023-05-15T10:40:16;15.00;99.90
54680;DHT22;40578;53.178;5.846;2023-05-15T10:42:44;15.20;99.90
54680;DHT22;40578;53.178;5.846;2023-05-15T10:45:11;15.10;99.90
54680;DHT22;40578;53.178;5.846;2023-05-15T10:47:37;15.20;99.90
54680;DHT22;40578;53.178;5.846;2023-05-15T10:50:04;15.10;99.90
54680;DHT22;40578;53.178;5.846;2023-05-15T10:52:31;14.90;99.90
54680;DHT22;40578;53.178;5.846;2023-05-15T10:54:58;14.90;99.90
54680;DHT22;40578;53.178;5.846;2023-05-15T10:57:24;15.00;99.90
54680;DHT22;40578;53.178;5.846;2023-05-15T10:59:50;15.20;99.90
54680;DHT22;40578;53.178;5.846;2023-05-15T11:02:24;14.70;99.90
54680;DHT22;40578;53.178;5.846;2023-05-15T11:05:01;14.70;99.90
54680;DHT22;40578;53.178;5.846;2023-05-15T11:07:27;14.60;99.90
54680;DHT22;40578;53.178;5.846;2023-05-15T11:09:54;14.60;99.90
54680;DHT22;40578;53.178;5.846;2023-05-15T11:12:21;14.50;99.90
54680;DHT22;40578;53.178;5.846;2023-05-15T11:17:25;14.40;99.90
54680;DHT22;40578;53.178;5.846;2023-05-15T11:22:21;14.40;99.90
54680;DHT22;40578;53.178;5.846;2023-05-15T11:24:50;14.40;99.90
54680;DHT22;40578;53.178;5.846;2023-05-15T11:27:21;14.40;99.90
54680;DHT22;40578;53.178;5.846;2023-05-15T11:30:13;14.20;99.90
54680;DHT22;40578;53.178;5.846;2023-05-15T11:32:46;14.30;99.90
54680;DHT22;40578;53.178;5.846;2023-05-15T11:37:45;14.40;99.90
54680;DHT22;40578;53.178;5.846;2023-05-15T11:40:25;14.40;99.90
54680;DHT22;40578;53.178;5.846;2023-05-15T11:45:41;14.40;99.90
54680;DHT22;40578;53.178;5.846;2023-05-15T11:48:11;14.50;99.90
54680;DHT22;40578;53.178;5.846;2023-05-15T11:50:37;14.50;99.90
54680;DHT22;40578;53.178;5.846;2023-05-15T11:53:08;14.30;99.90
54680;DHT22;40578;53.178;5.846;2023-05-15T11:55:36;14.40;99.90
54680;DHT22;40578;53.178;5.846;2023-05-15T11:58:03;14.40;99.90
54680;DHT22;40578;53.178;5.846;2023-05-15T12:00:29;14.40;99.90
54680;DHT22;40578;53.178;5.846;2023-05-15T12:02:56;14.30;99.90
54680;DHT22;40578;53.178;5.846;2023-05-15T12:05:22;14.40;99.90
54680;DHT22;40578;53.178;5.846;2023-05-15T12:07:48;14.40;99.90
54680;DHT22;40578;53.178;5.846;2023-05-15T12:10:14;14.60;99.90
54680;DHT22;40578;53.178;5.846;2023-05-15T12:12:43;14.40;99.90
54680;DHT22;40578;53.178;5.846;2023-05-15T12:15:11;14.40;99.90
54680;DHT22;40578;53.178;5.846;2023-05-15T12:17:38;14.30;99.90
54680;DHT22;40578;53.178;5.846;2023-05-15T12:20:05;14.50;99.90
54680;DHT22;40578;53.178;5.846;2023-05-15T12:22:37;14.40;99.90
54680;DHT22;40578;53.178;5.846;2023-05-15T12:25:04;14.30;99.90
54680;DHT22;40578;53.178;5.846;2023-05-15T12:27:34;14.30;99.90
54680;DHT22;40578;53.178;5.846;2023-05-15T12:30:01;14.30;99.90
54680;DHT22;40578;53.178;5.846;2023-05-15T12:32:34;14.30;99.90
54680;DHT22;40578;53.178;5.846;2023-05-15T12:35:01;14.30;99.90
54680;DHT22;40578;53.178;5.846;2023-05-15T12:37:30;14.20;99.90
54680;DHT22;40578;53.178;5.846;2023-05-15T12:39:59;14.00;99.90
54680;DHT22;40578;53.178;5.846;2023-05-15T12:42:25;14.00;99.90
54680;DHT22;40578;53.178;5.846;2023-05-15T12:44:53;14.10;99.90
54680;DHT22;40578;53.178;5.846;2023-05-15T12:47:26;14.00;99.90
54680;DHT22;40578;53.178;5.846;2023-05-15T12:49:55;13.80;99.90
54680;DHT22;40578;53.178;5.846;2023-05-15T12:52:21;13.90;99.90
54680;DHT22;40578;53.178;5.846;2023-05-15T12:54:47;14.70;99.90
54680;DHT22;40578;53.178;5.846;2023-05-15T12:57:13;14.00;99.90
54680;DHT22;40578;53.178;5.846;2023-05-15T12:59:39;13.90;99.90
54680;DHT22;40578;53.178;5.846;2023-05-15T13:02:12;14.00;99.90
54680;DHT22;40578;53.178;5.846;2023-05-15T13:04:38;14.10;99.90
54680;DHT22;40578;53.178;5.846;2023-05-15T13:07:04;14.20;99.90
54680;DHT22;40578;53.178;5.846;2023-05-15T13:09:30;14.10;99.90
54680;DHT22;40578;53.178;5.846;2023-05-15T13:11:57;14.00;99.90
54680;DHT22;40578;53.178;5.846;2023-05-15T13:14:23;14.10;99.90
54680;DHT22;40578;53.178;5.846;2023-05-15T13:16:51;14.10;99.90
54680;DHT22;40578;53.178;5.846;2023-05-15T13:19:17;14.10;99.90
54680;DHT22;40578;53.178;5.846;2023-05-15T13:21:43;13.90;99.90
54680;DHT22;40578;53.178;5.846;2023-05-15T13:24:10;14.10;99.90
54680;DHT22;40578;53.178;5.846;2023-05-15T13:26:35;14.10;99.90
54680;DHT22;40578;53.178;5.846;2023-05-15T13:29:01;14.10;99.90
54680;DHT22;40578;53.178;5.846;2023-05-15T13:31:27;14.10;99.90
54680;DHT22;40578;53.178;5.846;2023-05-15T13:33:52;14.10;99.90
54680;DHT22;40578;53.178;5.846;2023-05-15T13:36:18;14.20;99.90
54680;DHT22;40578;53.178;5.846;2023-05-15T13:38:43;14.20;99.90
54680;DHT22;40578;53.178;5.846;2023-05-15T13:41:09;14.60;99.90
54680;DHT22;40578;53.178;5.846;2023-05-15T13:43:35;14.30;99.90
54680;DHT22;40578;53.178;5.846;2023-05-15T13:46:00;14.40;99.90
54680;DHT22;40578;53.178;5.846;2023-05-15T13:48:26;14.60;99.90
54680;DHT22;40578;53.178;5.846;2023-05-15T13:50:51;14.40;99.90
54680;DHT22;40578;53.178;5.846;2023-05-15T13:53:17;14.40;99.90
54680;DHT22;40578;53.178;5.846;2023-05-15T13:55:44;14.50;99.90
54680;DHT22;40578;53.178;5.846;2023-05-15T13:58:10;14.50;99.90
54680;DHT22;40578;53.178;5.846;2023-05-15T14:00:37;14.30;99.90
54680;DHT22;40578;53.178;5.846;2023-05-15T14:03:02;14.30;99.90
54680;DHT22;40578;53.178;5.846;2023-05-15T14:05:28;14.30;99.90
54680;DHT22;40578;53.178;5.846;2023-05-15T14:07:54;14.30;99.90
54680;DHT22;40578;53.178;5.846;2023-05-15T14:10:21;14.30;99.90
54680;DHT22;40578;53.178;5.846;2023-05-15T14:12:48;14.30;99.90
54680;DHT22;40578;53.178;5.846;2023-05-15T14:15:14;14.30;99.90
54680;DHT22;40578;53.178;5.846;2023-05-15T14:17:40;14.40;99.90
54680;DHT22;40578;53.178;5.846;2023-05-15T14:20:06;14.20;99.90
54680;DHT22;40578;53.178;5.846;2023-05-15T14:22:33;14.10;99.90
54680;DHT22;40578;53.178;5.846;2023-05-15T14:24:58;13.80;99.90
54680;DHT22;40578;53.178;5.846;2023-05-15T14:27:24;13.90;99.90
54680;DHT22;40578;53.178;5.846;2023-05-15T14:29:49;13.80;99.90
54680;DHT22;40578;53.178;5.846;2023-05-15T14:32:15;13.80;99.90
54680;DHT22;40578;53.178;5.846;2023-05-15T14:34:41;13.70;99.90
54680;DHT22;40578;53.178;5.846;2023-05-15T14:37:07;13.60;99.90
54680;DHT22;40578;53.178;5.846;2023-05-15T14:39:32;13.60;99.90
54680;DHT22;40578;53.178;5.846;2023-05-15T14:41:58;13.50;99.90
54680;DHT22;40578;53.178;5.846;2023-05-15T14:44:23;13.60;99.90
54680;DHT22;40578;53.178;5.846;2023-05-15T14:47:10;13.60;99.90
54680;DHT22;40578;53.178;5.846;2023-05-15T14:49:40;13.60;99.90
54680;DHT22;40578;53.178;5.846;2023-05-15T14:52:08;13.60;99.90
54680;DHT22;40578;53.178;5.846;2023-05-15T14:54:34;13.70;99.90
54680;DHT22;40578;53.178;5.846;2023-05-15T14:57:00;13.70;99.90
54680;DHT22;40578;53.178;5.846;2023-05-15T14:59:26;13.80;99.90
54680;DHT22;40578;53.178;5.846;2023-05-15T15:01:53;13.60;99.90
54680;DHT22;40578;53.178;5.846;2023-05-15T15:04:19;13.70;99.90
54680;DHT22;40578;53.178;5.846;2023-05-15T15:06:46;13.60;99.90
54680;DHT22;40578;53.178;5.846;2023-05-15T15:09:12;13.40;99.90
54680;DHT22;40578;53.178;5.846;2023-05-15T15:11:37;13.40;99.90
54680;DHT22;40578;53.178;5.846;2023-05-15T15:14:03;13.40;99.90
54680;DHT22;40578;53.178;5.846;2023-05-15T15:16:29;13.50;99.90
54680;DHT22;40578;53.178;5.846;2023-05-15T15:18:54;13.40;99.90
54680;DHT22;40578;53.178;5.846;2023-05-15T15:21:20;13.40;99.90
54680;DHT22;40578;53.178;5.846;2023-05-15T15:23:46;13.40;99.90
54680;DHT22;40578;53.178;5.846;2023-05-15T15:26:12;13.40;99.90
54680;DHT22;40578;53.178;5.846;2023-05-15T15:28:38;13.40;99.90
54680;DHT22;40578;53.178;5.846;2023-05-15T15:31:04;13.60;99.90
54680;DHT22;40578;53.178;5.846;2023-05-15T15:33:29;13.30;99.90
54680;DHT22;40578;53.178;5.846;2023-05-15T15:35:55;13.30;99.90
54680;DHT22;40578;53.178;5.846;2023-05-15T15:38:21;13.30;99.90
54680;DHT22;40578;53.178;5.846;2023-05-15T15:40:46;13.30;99.90
54680;DHT22;40578;53.178;5.846;2023-05-15T15:43:12;13.60;99.90
54680;DHT22;40578;53.178;5.846;2023-05-15T15:45:38;13.30;99.90
54680;DHT22;40578;53.178;5.846;2023-05-15T15:48:04;13.20;99.90
54680;DHT22;40578;53.178;5.846;2023-05-15T15:50:30;13.00;99.90
54680;DHT22;40578;53.178;5.846;2023-05-15T15:52:56;13.00;99.90
54680;DHT22;40578;53.178;5.846;2023-05-15T15:55:22;13.00;99.90
54680;DHT22;40578;53.178;5.846;2023-05-15T15:57:47;12.90;99.90
54680;DHT22;40578;53.178;5.846;2023-05-15T16:00:13;12.80;99.90
54680;DHT22;40578;53.178;5.846;2023-05-15T16:02:39;12.80;99.90